アシガバート の空港の天気 - METARとTAF

アシガバート空港 ( UTAA / ASB ) - トルクメニスタン アシガバート
飛行場実況気象(Metar)
観測時間02/18 04:00 TMT (02/17 23:00 UTC)
風向・風速北 3m/s
視程10km以上
天気現象弱いしゅう雨
少しの雲 雲底高度 610m
全天を覆う雲 雲底高度 610m
気温5℃
湿度87%
気圧1014hPa
METARUTAA 172300Z 01006KT 9999 -SHRA FEW020CB OVC020 05/03 Q1014 R88/290055 NOSIG
過去の天気等 Google飛行場航空写真 Wunderground天気予報

過去48時間のMETAR

飛行場予報(TAF)
発表時間: 2/17 21:35 TMT (2/17 16:35 UTC)
予報対象時間: 17日23時 TMT ~ 18日23時 TMT
風向・風速西北西 8m/s
視程3000m
天気現象弱い雨
全天を覆う雲 雲底高度 210m
全天の4割程度の積乱雲 雲底高度 610m
17日23時 TMT ~ 18日11時 TMT に一時的に
風向・風速北 8m/s
視程1200m
天気現象もや 雨
全天を覆う雲 雲底高度 90m
18日4時 TMT ~ 18日11時 TMT に 確率 40% で一時的に
視程300m
天気現象霧 霧雨
全天を覆う雲 鉛直視程 30m
TAF UTAA 171635Z 1718/1818 30016KT 3000 -RA OVC007 SCT020CB 530009
TEMPO 1718/1806 01016KT 1200 BR RA OVC003
PROB40 TEMPO 1723/1806 0300 FG DZ VV001